Time;durP1;ratioP1;P1;durP2;ratioP2;P2;SDS_P1;SDS_P2;PMS_P1;PMS_P2;Temp;Humidity;BMP_temperature;BMP_pressure;BME280_temperature;BME280_humidity;BME280_pressure;Samples;Min_cycle;Max_cycle;Signal;HPM_P1;HPM_P2
2022/07/03 00:00:40;;;;;;;0.70;0.70;;;23.10;67.00;;;;;;5069310;28;44004;-70
2022/07/03 00:03:08;;;;;;;0.80;0.80;;;23.00;67.40;;;;;;5069173;28;43979;-70
2022/07/03 00:05:36;;;;;;;0.60;0.60;;;22.80;67.70;;;;;;5069253;28;43937;-70
2022/07/03 00:08:05;;;;;;;0.67;0.67;;;22.80;68.00;;;;;;5050896;28;44064;-69
2022/07/03 00:10:34;;;;;;;0.80;0.80;;;22.70;68.20;;;;;;5050974;28;44057;-71
2022/07/03 00:13:02;;;;;;;0.70;0.70;;;22.60;68.30;;;;;;5068750;28;45047;-71
2022/07/03 00:15:30;;;;;;;0.90;0.90;;;22.60;68.60;;;;;;5069215;28;43993;-70
2022/07/03 00:17:58;;;;;;;0.80;0.80;;;22.50;68.60;;;;;;5069030;28;44027;-69
2022/07/03 00:20:26;;;;;;;0.70;0.70;;;22.50;68.70;;;;;;5069227;28;44039;-69
2022/07/03 00:22:55;;;;;;;0.70;0.70;;;22.50;68.80;;;;;;5069043;28;43935;-69
2022/07/03 00:25:23;;;;;;;0.67;0.67;;;22.50;68.90;;;;;;5068857;28;44041;-69
2022/07/03 00:27:52;;;;;;;1.50;1.30;;;22.50;69.70;;;;;;5068794;28;43925;-69
2022/07/03 00:30:20;;;;;;;0.70;0.70;;;22.40;69.20;;;;;;5068721;28;43976;-69
2022/07/03 00:32:50;;;;;;;0.70;0.70;;;22.50;70.30;;;;;;5068810;28;45119;-70
2022/07/03 00:35:18;;;;;;;0.70;0.70;;;22.50;70.30;;;;;;5068824;28;44028;-69
2022/07/03 00:37:46;;;;;;;0.60;0.60;;;22.60;70.10;;;;;;5068584;28;44017;-71
2022/07/03 00:40:14;;;;;;;0.73;0.73;;;22.70;69.50;;;;;;5068625;28;43408;-70
2022/07/03 00:42:43;;;;;;;0.70;0.70;;;22.80;69.10;;;;;;5068193;28;44008;-70
2022/07/03 00:45:13;;;;;;;0.70;0.70;;;23.00;68.60;;;;;;5068450;28;43980;-70
2022/07/03 00:47:41;;;;;;;0.70;0.70;;;23.10;68.10;;;;;;5067423;28;43947;-70
2022/07/03 00:50:10;;;;;;;0.73;0.73;;;23.30;67.70;;;;;;5069139;28;44034;-71
2022/07/03 00:52:38;;;;;;;0.80;0.80;;;23.40;67.20;;;;;;5068286;28;45015;-69
2022/07/03 00:55:08;;;;;;;0.87;0.87;;;23.50;66.70;;;;;;5068446;28;43856;-70
2022/07/03 00:57:36;;;;;;;0.60;0.60;;;23.60;66.30;;;;;;5068546;28;43429;-70
2022/07/03 01:00:13;;;;;;;0.80;0.80;;;23.70;66.10;;;;;;5068757;28;43900;-70
2022/07/03 01:02:46;;;;;;;0.80;0.80;;;23.80;65.70;;;;;;5067656;28;44091;-69
2022/07/03 01:05:17;;;;;;;0.80;0.80;;;23.80;65.60;;;;;;5068245;28;43940;-69
2022/07/03 01:07:49;;;;;;;0.70;0.70;;;23.70;65.90;;;;;;5029946;28;43921;-69
2022/07/03 01:10:21;;;;;;;0.80;0.80;;;23.50;66.10;;;;;;5062706;28;43901;-69
2022/07/03 01:12:56;;;;;;;0.73;0.73;;;23.30;66.20;;;;;;5068118;28;44089;-69
2022/07/03 01:15:35;;;;;;;0.70;0.70;;;23.10;67.00;;;;;;5068078;28;43993;-69
2022/07/03 01:18:13;;;;;;;2.10;0.80;;;23.00;67.40;;;;;;5067859;28;43322;-70
2022/07/03 01:20:41;;;;;;;0.67;0.67;;;22.90;67.70;;;;;;5068295;28;43477;-68
2022/07/03 01:23:12;;;;;;;0.80;0.80;;;22.80;68.00;;;;;;5067959;28;43893;-69
2022/07/03 01:25:44;;;;;;;0.63;0.63;;;22.70;68.20;;;;;;5067715;28;44000;-69
2022/07/03 01:28:13;;;;;;;0.87;0.87;;;22.60;68.40;;;;;;5067966;28;43798;-69
2022/07/03 01:30:42;;;;;;;0.87;0.87;;;22.60;68.70;;;;;;5049560;28;44125;-68
2022/07/03 01:33:12;;;;;;;0.80;0.80;;;22.60;68.80;;;;;;5049123;28;44030;-69
2022/07/03 01:35:41;;;;;;;0.93;0.93;;;22.50;68.90;;;;;;5060910;28;43901;-69
2022/07/03 01:38:10;;;;;;;0.77;0.77;;;22.50;69.00;;;;;;5061426;28;43939;-69
2022/07/03 01:40:39;;;;;;;0.80;0.80;;;22.50;69.10;;;;;;5039888;28;44288;-69
2022/07/03 01:43:09;;;;;;;0.90;0.90;;;22.50;69.20;;;;;;5061581;28;44048;-70
2022/07/03 01:45:40;;;;;;;0.60;0.60;;;22.50;69.20;;;;;;5067887;28;43928;-69
2022/07/03 01:48:08;;;;;;;0.80;0.80;;;22.40;69.70;;;;;;5067916;28;44015;-69
2022/07/03 01:50:37;;;;;;;0.80;0.80;;;22.50;70.50;;;;;;5049924;28;44276;-70
2022/07/03 01:53:07;;;;;;;0.70;0.70;;;22.50;70.30;;;;;;5067432;28;45122;-69
2022/07/03 01:55:35;;;;;;;0.80;0.80;;;22.60;70.70;;;;;;5067236;28;43471;-69
2022/07/03 01:58:03;;;;;;;0.87;0.87;;;22.70;69.50;;;;;;5067055;28;43959;-70
2022/07/03 02:00:36;;;;;;;0.83;0.83;;;22.90;69.10;;;;;;5067550;28;43996;-69
2022/07/03 02:03:05;;;;;;;0.70;0.70;;;23.00;68.60;;;;;;5066837;28;43603;-69
2022/07/03 02:05:39;;;;;;;0.60;0.60;;;23.20;68.00;;;;;;5048708;28;44762;-69
2022/07/03 02:08:12;;;;;;;0.80;0.80;;;23.30;67.60;;;;;;5067426;28;43968;-69
2022/07/03 02:10:45;;;;;;;0.70;0.70;;;23.50;67.10;;;;;;5068087;28;43975;-69
2022/07/03 02:13:17;;;;;;;0.77;0.77;;;23.60;66.70;;;;;;5067096;28;44826;-70
2022/07/03 02:15:46;;;;;;;0.70;0.70;;;23.70;66.40;;;;;;5067130;28;43758;-69
2022/07/03 02:18:28;;;;;;;0.80;0.80;;;23.80;66.00;;;;;;5066927;28;43380;-69
2022/07/03 02:21:05;;;;;;;0.80;0.80;;;23.80;65.80;;;;;;5067454;28;43365;-68
2022/07/03 02:23:37;;;;;;;0.70;0.70;;;23.70;66.00;;;;;;5066885;28;44711;-69
2022/07/03 02:26:05;;;;;;;0.80;0.80;;;23.50;66.20;;;;;;5067294;28;43932;-69
2022/07/03 02:28:41;;;;;;;0.87;0.87;;;23.30;66.40;;;;;;5048658;28;43957;-69
2022/07/03 02:31:11;;;;;;;0.97;0.97;;;23.10;67.00;;;;;;5067428;28;43907;-69
2022/07/03 02:33:39;;;;;;;0.73;0.73;;;23.00;67.50;;;;;;5066722;28;44963;-69
2022/07/03 02:36:07;;;;;;;0.80;0.80;;;22.90;67.90;;;;;;5066868;28;43372;-69
2022/07/03 02:38:35;;;;;;;0.80;0.80;;;22.80;68.20;;;;;;5066978;28;43892;-69
2022/07/03 02:41:04;;;;;;;0.73;0.73;;;22.70;68.50;;;;;;5066765;28;43387;-68
2022/07/03 02:43:38;;;;;;;0.77;0.77;;;22.70;68.70;;;;;;5066710;28;43995;-68
2022/07/03 02:46:48;;;;;;;0.70;0.70;;;22.60;68.70;;;;;;5066958;28;43964;-70
2022/07/03 02:48:58;;;;;;;0.90;0.90;;;22.60;69.70;;;;;;5066536;28;43324;-69
2022/07/03 02:51:36;;;;;;;0.70;0.70;;;22.50;69.00;;;;;;5066899;28;43834;-69
2022/07/03 02:54:10;;;;;;;0.77;0.77;;;22.50;69.90;;;;;;5066345;28;43864;-70
2022/07/03 02:56:43;;;;;;;0.67;0.67;;;22.50;69.30;;;;;;5066767;28;43993;-69
2022/07/03 02:59:15;;;;;;;0.67;0.67;;;22.50;69.30;;;;;;5066452;28;43813;-68
2022/07/03 03:01:49;;;;;;;0.80;0.80;;;22.40;69.30;;;;;;5066517;28;43998;-69
2022/07/03 03:04:22;;;;;;;0.70;0.70;;;22.40;69.70;;;;;;5066443;28;43907;-69
2022/07/03 03:06:55;;;;;;;0.80;0.80;;;22.50;70.60;;;;;;5066230;28;43513;-68
2022/07/03 03:09:27;;;;;;;0.80;0.80;;;22.50;70.40;;;;;;5060178;28;44008;-70
2022/07/03 03:11:56;;;;;;;0.70;0.70;;;22.60;70.00;;;;;;5064230;28;43378;-69
2022/07/03 03:14:24;;;;;;;0.90;0.90;;;22.70;69.50;;;;;;5069861;28;43981;-69
2022/07/03 03:16:53;;;;;;;0.73;0.73;;;22.90;69.10;;;;;;5069928;28;43395;-69
2022/07/03 03:19:23;;;;;;;0.87;0.87;;;23.00;68.50;;;;;;5069882;28;43359;-69
2022/07/03 03:22:05;;;;;;;1.20;0.83;;;23.20;68.10;;;;;;5051873;28;44127;-69
2022/07/03 03:24:34;;;;;;;0.90;0.90;;;23.40;67.60;;;;;;5069706;28;44882;-68
2022/07/03 03:27:02;;;;;;;0.80;0.80;;;23.50;67.20;;;;;;5069478;28;43419;-70
2022/07/03 03:29:30;;;;;;;0.73;0.73;;;23.60;66.70;;;;;;5069345;28;43937;-69
2022/07/03 03:31:58;;;;;;;0.70;0.70;;;23.70;66.40;;;;;;5070257;28;44057;-70
2022/07/03 03:34:32;;;;;;;0.93;0.93;;;23.70;66.00;;;;;;5069638;28;44022;-68
2022/07/03 03:37:00;;;;;;;0.80;0.80;;;23.70;66.00;;;;;;5069604;28;43885;-69
2022/07/03 03:39:28;;;;;;;0.90;0.90;;;23.60;66.20;;;;;;5069236;28;44035;-69
2022/07/03 03:41:56;;;;;;;0.80;0.80;;;23.50;66.40;;;;;;5070022;28;43857;-69
2022/07/03 03:44:24;;;;;;;0.90;0.90;;;23.30;66.90;;;;;;5069555;28;43913;-69
2022/07/03 03:46:52;;;;;;;0.80;0.80;;;23.10;67.30;;;;;;5069490;28;43995;-69
2022/07/03 03:49:20;;;;;;;0.83;0.83;;;23.00;67.70;;;;;;5069631;28;43978;-70
2022/07/03 03:51:49;;;;;;;0.90;0.90;;;22.90;68.00;;;;;;5069869;28;43937;-69
2022/07/03 03:54:17;;;;;;;0.60;0.60;;;22.80;68.40;;;;;;5051339;28;44288;-69
2022/07/03 03:56:45;;;;;;;0.83;0.83;;;22.70;68.60;;;;;;5069222;28;44005;-69
2022/07/03 03:59:13;;;;;;;0.80;0.80;;;22.70;68.80;;;;;;5069491;28;43787;-69
2022/07/03 04:01:41;;;;;;;0.70;0.70;;;22.60;69.00;;;;;;5068895;28;43974;-69
2022/07/03 04:04:12;;;;;;;0.70;0.70;;;22.50;69.00;;;;;;5069424;28;44190;-69
2022/07/03 04:06:40;;;;;;;1.00;1.00;;;22.60;69.30;;;;;;5069258;28;44395;-68
2022/07/03 04:09:09;;;;;;;0.80;0.80;;;22.50;69.30;;;;;;5069552;28;43936;-70
2022/07/03 04:11:37;;;;;;;0.90;0.90;;;22.50;69.40;;;;;;5069702;28;43313;-70
2022/07/03 04:14:05;;;;;;;0.80;0.80;;;22.50;69.40;;;;;;5069204;28;45122;-70
2022/07/03 04:16:35;;;;;;;0.80;0.80;;;22.50;69.50;;;;;;5069051;28;43971;-69
2022/07/03 04:19:03;;;;;;;1.00;1.00;;;22.50;69.50;;;;;;5069100;28;43991;-69
2022/07/03 04:21:31;;;;;;;0.77;0.77;;;22.40;70.10;;;;;;5069238;28;43403;-69
2022/07/03 04:23:59;;;;;;;0.90;0.90;;;22.40;70.70;;;;;;5069078;28;43968;-69
2022/07/03 04:26:28;;;;;;;0.90;0.90;;;22.50;70.50;;;;;;5050728;28;46437;-69
2022/07/03 04:28:56;;;;;;;1.00;1.00;;;22.60;70.10;;;;;;5068727;28;43958;-70
2022/07/03 04:31:24;;;;;;;0.90;0.90;;;22.70;69.60;;;;;;5069330;28;43909;-70
2022/07/03 04:33:52;;;;;;;0.77;0.77;;;22.90;69.30;;;;;;5050105;28;46002;-69
2022/07/03 04:36:21;;;;;;;0.90;0.90;;;23.00;68.70;;;;;;5068943;28;43924;-69
2022/07/03 04:38:49;;;;;;;1.37;1.27;;;23.20;68.30;;;;;;5068745;28;43964;-69
2022/07/03 04:41:17;;;;;;;0.80;0.80;;;23.30;67.80;;;;;;5068956;28;44036;-70
2022/07/03 04:43:47;;;;;;;0.90;0.90;;;23.50;67.40;;;;;;5050292;28;45963;-70
2022/07/03 04:46:15;;;;;;;0.80;0.80;;;23.50;66.90;;;;;;5068653;28;43986;-68
2022/07/03 04:48:43;;;;;;;0.90;0.90;;;23.60;66.60;;;;;;5068961;28;44098;-69
2022/07/03 04:51:11;;;;;;;0.80;0.80;;;23.70;66.30;;;;;;5068881;28;44200;-70
2022/07/03 04:53:39;;;;;;;0.80;0.80;;;23.60;66.30;;;;;;5068271;28;45009;-69
2022/07/03 04:56:07;;;;;;;0.80;0.80;;;23.50;66.70;;;;;;5068691;28;43915;-70
2022/07/03 04:58:35;;;;;;;1.00;1.00;;;23.40;66.90;;;;;;5068639;28;43944;-70
2022/07/03 05:01:04;;;;;;;0.80;0.80;;;23.20;67.40;;;;;;5068907;28;43867;-70
2022/07/03 05:03:32;;;;;;;1.00;1.00;;;23.10;67.70;;;;;;5068139;28;44904;-69
2022/07/03 05:06:01;;;;;;;0.90;0.90;;;22.90;67.90;;;;;;5068378;28;43892;-69
2022/07/03 05:08:29;;;;;;;0.80;0.80;;;22.80;69.00;;;;;;5068342;28;44018;-70
2022/07/03 05:10:57;;;;;;;0.90;0.90;;;22.70;68.50;;;;;;5050417;28;43938;-69
2022/07/03 05:13:25;;;;;;;0.80;0.80;;;22.70;68.80;;;;;;5067895;28;44171;-69
2022/07/03 05:15:53;;;;;;;1.00;1.00;;;22.60;69.00;;;;;;5068173;28;43949;-70
2022/07/03 05:18:22;;;;;;;0.80;0.80;;;22.60;69.20;;;;;;5068234;28;43984;-69
2022/07/03 05:20:50;;;;;;;0.80;0.80;;;22.50;69.30;;;;;;5068318;28;44055;-70
2022/07/03 05:23:18;;;;;;;1.00;1.00;;;22.50;69.30;;;;;;5067999;28;44116;-69
2022/07/03 05:25:46;;;;;;;0.80;0.80;;;22.50;69.50;;;;;;5067776;28;44030;-69
2022/07/03 05:28:15;;;;;;;0.80;0.80;;;22.50;69.50;;;;;;5068084;28;43964;-69
2022/07/03 05:30:43;;;;;;;0.90;0.90;;;22.50;69.60;;;;;;5068563;28;43861;-69
2022/07/03 05:33:11;;;;;;;0.90;0.90;;;22.40;70.40;;;;;;5060520;28;44705;-69
2022/07/03 05:35:40;;;;;;;0.90;0.90;;;22.50;70.90;;;;;;5068029;28;43403;-69
2022/07/03 05:38:08;;;;;;;0.90;0.90;;;22.50;70.80;;;;;;5056807;28;44120;-70
2022/07/03 05:40:36;;;;;;;0.80;0.80;;;22.60;71.10;;;;;;5061830;28;43981;-69
2022/07/03 05:43:04;;;;;;;0.93;0.93;;;22.80;70.00;;;;;;5061581;28;44225;-70
2022/07/03 05:45:32;;;;;;;0.80;0.80;;;22.90;69.50;;;;;;5061037;28;43930;-69
2022/07/03 05:48:00;;;;;;;0.80;0.80;;;23.00;68.80;;;;;;5061365;28;43937;-70
2022/07/03 05:50:29;;;;;;;0.90;0.90;;;23.20;68.50;;;;;;5061835;28;43424;-70
2022/07/03 05:52:59;;;;;;;0.90;0.90;;;23.30;68.00;;;;;;5049263;28;45635;-70
2022/07/03 05:55:27;;;;;;;0.97;0.97;;;23.40;67.60;;;;;;5067395;28;44053;-69
2022/07/03 05:57:55;;;;;;;1.00;1.00;;;23.50;67.20;;;;;;5049189;28;43903;-69
2022/07/03 06:00:23;;;;;;;0.80;0.80;;;23.60;67.60;;;;;;5068098;28;43360;-69
2022/07/03 06:02:51;;;;;;;0.80;0.80;;;23.60;66.80;;;;;;5066917;28;44129;-70
2022/07/03 06:05:19;;;;;;;1.00;1.00;;;23.50;67.00;;;;;;5067259;28;43914;-70
2022/07/03 06:07:47;;;;;;;1.00;1.00;;;23.40;67.40;;;;;;5067354;28;43338;-69
2022/07/03 06:10:16;;;;;;;1.00;1.00;;;23.30;67.60;;;;;;5067748;28;43350;-70
2022/07/03 06:12:44;;;;;;;0.70;0.70;;;23.10;67.90;;;;;;5066967;28;45130;-69
2022/07/03 06:15:12;;;;;;;0.90;0.90;;;23.00;68.20;;;;;;5067178;28;43982;-69
2022/07/03 06:17:40;;;;;;;0.80;0.80;;;22.90;68.50;;;;;;5067335;28;43985;-69
2022/07/03 06:20:09;;;;;;;0.80;0.80;;;22.80;68.80;;;;;;5067923;28;44035;-68
2022/07/03 06:22:37;;;;;;;1.00;1.00;;;22.80;69.00;;;;;;5067403;28;43771;-68
2022/07/03 06:25:06;;;;;;;0.97;0.97;;;22.70;69.10;;;;;;5067414;28;43964;-69
2022/07/03 06:27:35;;;;;;;0.90;0.90;;;22.60;70.00;;;;;;5066968;28;43865;-69
2022/07/03 06:30:03;;;;;;;0.90;0.90;;;22.60;69.40;;;;;;5067450;28;43907;-69
2022/07/03 06:32:31;;;;;;;0.80;0.80;;;22.60;69.50;;;;;;5066993;28;44001;-69
2022/07/03 06:34:59;;;;;;;0.80;0.80;;;22.60;69.60;;;;;;5066719;28;43815;-69
2022/07/03 06:37:27;;;;;;;0.90;0.90;;;22.50;69.60;;;;;;5066990;28;43912;-70
2022/07/03 06:39:55;;;;;;;0.90;0.90;;;22.50;69.70;;;;;;5048863;28;44080;-69
2022/07/03 06:42:23;;;;;;;1.00;1.00;;;22.50;69.70;;;;;;5066386;28;45155;-69
2022/07/03 06:44:53;;;;;;;0.80;0.80;;;22.50;69.80;;;;;;5047247;28;44533;-69
2022/07/03 06:47:21;;;;;;;1.00;1.00;;;22.50;69.90;;;;;;5066907;28;43368;-68
2022/07/03 06:49:49;;;;;;;1.07;1.07;;;22.50;70.90;;;;;;5067207;28;43968;-70
2022/07/03 06:52:17;;;;;;;1.00;1.00;;;22.50;70.90;;;;;;5048222;28;45786;-70
2022/07/03 06:54:45;;;;;;;0.90;0.90;;;22.50;70.80;;;;;;5066595;28;43893;-69
2022/07/03 06:57:13;;;;;;;0.83;0.83;;;22.70;70.50;;;;;;5066763;28;43949;-70
2022/07/03 06:59:41;;;;;;;1.00;1.00;;;22.80;70.10;;;;;;5067218;28;44031;-69
2022/07/03 07:02:11;;;;;;;0.97;0.97;;;22.90;69.60;;;;;;5048185;28;45455;-70
2022/07/03 07:04:39;;;;;;;0.93;0.93;;;23.10;69.20;;;;;;5066660;28;44004;-70
2022/07/03 07:07:07;;;;;;;1.00;1.00;;;23.20;68.60;;;;;;5066924;28;43866;-69
2022/07/03 07:09:35;;;;;;;0.90;0.90;;;23.30;68.20;;;;;;5067356;28;43963;-69
2022/07/03 07:12:03;;;;;;;0.80;0.80;;;23.50;67.90;;;;;;5066407;28;43917;-68
2022/07/03 07:14:31;;;;;;;0.90;0.90;;;23.50;67.50;;;;;;5066249;28;43838;-69
2022/07/03 07:16:59;;;;;;;0.90;0.90;;;23.60;67.20;;;;;;5066532;28;43964;-69
2022/07/03 07:19:29;;;;;;;1.00;1.00;;;23.60;67.20;;;;;;5066786;28;44067;-69
2022/07/03 07:21:57;;;;;;;0.90;0.90;;;23.50;68.20;;;;;;5066055;28;43904;-69
2022/07/03 07:24:25;;;;;;;0.83;0.83;;;23.30;67.70;;;;;;5066292;28;44021;-69
2022/07/03 07:26:53;;;;;;;0.80;0.80;;;23.20;68.00;;;;;;5066402;28;43905;-69
2022/07/03 07:29:21;;;;;;;0.90;0.90;;;23.00;68.10;;;;;;5066761;28;43897;-69
2022/07/03 07:31:49;;;;;;;0.80;0.80;;;22.90;68.40;;;;;;5047928;28;45659;-69
2022/07/03 07:34:17;;;;;;;0.80;0.80;;;22.80;68.70;;;;;;5066000;28;43463;-69
2022/07/03 07:36:46;;;;;;;0.80;0.80;;;22.80;69.10;;;;;;5066117;28;43377;-70
2022/07/03 07:39:14;;;;;;;0.93;0.93;;;22.70;69.30;;;;;;5066567;28;43885;-69
2022/07/03 07:41:42;;;;;;;0.80;0.80;;;22.70;69.50;;;;;;5065773;28;44048;-69
2022/07/03 07:44:10;;;;;;;0.90;0.90;;;22.60;69.60;;;;;;5065857;28;43396;-69
2022/07/03 07:46:44;;;;;;;0.90;0.90;;;22.50;69.60;;;;;;5066418;28;44030;-69
2022/07/03 07:49:12;;;;;;;1.00;1.00;;;22.50;69.80;;;;;;5066887;28;43836;-69
2022/07/03 07:51:40;;;;;;;0.90;0.90;;;22.50;70.00;;;;;;5066012;28;43937;-68
2022/07/03 07:54:09;;;;;;;0.90;0.90;;;22.50;70.00;;;;;;5047934;28;44380;-69
2022/07/03 07:56:37;;;;;;;0.80;0.80;;;22.50;70.00;;;;;;5067506;28;43858;-69
2022/07/03 07:59:05;;;;;;;0.73;0.73;;;22.50;70.10;;;;;;5070004;28;43543;-69
2022/07/03 08:07:05;;;;;;;0.70;0.70;;;22.50;70.80;;;;;;5051170;28;43401;-69
2022/07/03 08:09:34;;;;;;;0.83;0.83;;;22.60;70.50;;;;;;5069818;28;43905;-69
2022/07/03 08:12:02;;;;;;;1.13;1.13;;;22.80;70.10;;;;;;5068760;28;43959;-69
2022/07/03 08:14:30;;;;;;;0.97;0.97;;;22.90;69.60;;;;;;5069108;28;43864;-69
2022/07/03 08:16:58;;;;;;;0.80;0.80;;;23.10;69.30;;;;;;5069212;28;43914;-69
2022/07/03 08:19:26;;;;;;;0.90;0.90;;;23.20;68.70;;;;;;5069321;28;43989;-69
2022/07/03 08:21:54;;;;;;;0.70;0.70;;;23.30;69.00;;;;;;5068857;28;43923;-70
2022/07/03 08:24:22;;;;;;;0.87;0.87;;;23.40;67.90;;;;;;5068807;28;43960;-69
2022/07/03 08:26:52;;;;;;;0.80;0.80;;;23.50;67.40;;;;;;5068871;28;43786;-69
2022/07/03 08:29:19;;;;;;;1.13;0.97;;;23.60;67.20;;;;;;5069408;28;44020;-69
2022/07/03 08:31:47;;;;;;;0.90;0.90;;;23.60;66.80;;;;;;5068665;28;43956;-69
2022/07/03 08:34:16;;;;;;;0.90;0.90;;;23.60;67.00;;;;;;5068894;28;44072;-69
2022/07/03 08:36:44;;;;;;;0.90;0.90;;;23.50;67.30;;;;;;5068706;28;43949;-68
2022/07/03 08:39:12;;;;;;;0.80;0.80;;;23.30;67.60;;;;;;5069066;28;43894;-69
2022/07/03 08:41:40;;;;;;;0.70;0.70;;;23.20;67.70;;;;;;5068463;28;45108;-69
2022/07/03 08:44:10;;;;;;;0.80;0.80;;;23.00;67.90;;;;;;5068867;28;43968;-70
2022/07/03 08:46:38;;;;;;;0.87;0.87;;;22.90;68.30;;;;;;5068924;28;43961;-69
2022/07/03 08:49:06;;;;;;;0.80;0.80;;;22.80;68.70;;;;;;5050797;28;43921;-69
2022/07/03 08:51:35;;;;;;;0.90;0.90;;;22.70;68.80;;;;;;5068413;28;44096;-69
2022/07/03 08:54:03;;;;;;;1.10;1.10;;;22.60;69.00;;;;;;5050072;28;44279;-69
2022/07/03 08:56:31;;;;;;;0.87;0.87;;;22.60;69.20;;;;;;5068447;28;43999;-69
2022/07/03 08:58:59;;;;;;;1.27;0.90;;;22.50;69.20;;;;;;5068878;28;43956;-69
2022/07/03 09:01:29;;;;;;;0.80;0.80;;;22.50;69.30;;;;;;5068195;28;43976;-69
2022/07/03 09:03:57;;;;;;;0.90;0.90;;;22.50;69.40;;;;;;5068268;28;43964;-69
2022/07/03 09:06:25;;;;;;;1.13;0.90;;;22.40;69.50;;;;;;5068419;28;43905;-70
2022/07/03 09:08:53;;;;;;;1.10;1.10;;;22.40;69.50;;;;;;5067604;28;43945;-70
2022/07/03 09:11:21;;;;;;;0.80;0.80;;;22.40;69.50;;;;;;5068177;28;44810;-70
2022/07/03 09:13:49;;;;;;;1.03;0.90;;;22.40;69.60;;;;;;5068206;28;43915;-70
2022/07/03 09:16:22;;;;;;;1.10;1.10;;;22.40;69.60;;;;;;5049991;28;44112;-70
2022/07/03 09:18:51;;;;;;;10.00;1.33;;;22.40;70.60;;;;;;5068489;28;44017;-70
2022/07/03 09:21:20;;;;;;;1.30;0.90;;;22.40;70.00;;;;;;5067839;28;43612;-69
2022/07/03 09:23:48;;;;;;;0.80;0.80;;;22.50;70.00;;;;;;5067872;28;43936;-70
2022/07/03 09:26:17;;;;;;;1.10;1.10;;;22.60;69.60;;;;;;5049568;28;44073;-69
2022/07/03 09:28:51;;;;;;;0.90;0.90;;;22.70;69.40;;;;;;5068508;28;43341;-69
2022/07/03 09:31:20;;;;;;;0.90;0.90;;;22.90;69.00;;;;;;5068000;28;43885;-69
2022/07/03 09:33:56;;;;;;;0.90;0.90;;;23.00;68.50;;;;;;5067647;28;44034;-68
2022/07/03 09:36:38;;;;;;;1.00;1.00;;;23.20;68.00;;;;;;5068110;28;43965;-69
2022/07/03 09:39:17;;;;;;;2.93;1.20;;;23.30;67.60;;;;;;5063190;28;43424;-69
2022/07/03 09:41:56;;;;;;;1.10;1.10;;;23.40;67.20;;;;;;5067293;28;43854;-69
2022/07/03 09:44:31;;;;;;;1.00;1.00;;;23.50;66.70;;;;;;5049229;28;45301;-70
2022/07/03 09:47:13;;;;;;;1.10;1.10;;;23.60;66.60;;;;;;5067522;28;43935;-69
2022/07/03 09:49:52;;;;;;;1.03;1.03;;;23.60;66.30;;;;;;5061827;28;43889;-70
2022/07/03 09:52:31;;;;;;;3.90;1.23;;;23.50;66.60;;;;;;5049202;28;45780;-69
2022/07/03 09:54:59;;;;;;;0.93;0.93;;;23.40;66.90;;;;;;5067528;28;43952;-69
2022/07/03 09:57:28;;;;;;;1.00;1.00;;;23.20;67.10;;;;;;5067703;28;43960;-69
2022/07/03 10:00:10;;;;;;;1.10;1.10;;;23.10;67.30;;;;;;5067654;28;44042;-69
2022/07/03 10:02:53;;;;;;;1.00;1.00;;;23.00;67.70;;;;;;5067314;28;43960;-70
2022/07/03 10:05:26;;;;;;;1.00;1.00;;;22.90;68.00;;;;;;5067596;28;43908;-68
2022/07/03 10:07:55;;;;;;;1.00;1.00;;;22.80;68.30;;;;;;5067144;28;44000;-69
2022/07/03 10:10:24;;;;;;;1.00;1.00;;;22.70;68.50;;;;;;5067882;28;44017;-69
2022/07/03 10:12:54;;;;;;;1.17;1.17;;;22.70;68.70;;;;;;5066901;28;44027;-68
2022/07/03 10:15:23;;;;;;;1.10;1.10;;;22.60;68.90;;;;;;5066964;28;43379;-69
2022/07/03 10:17:52;;;;;;;1.03;1.03;;;22.60;69.00;;;;;;5067361;28;43806;-69
2022/07/03 10:20:26;;;;;;;0.93;0.93;;;22.50;69.00;;;;;;5067464;28;43972;-69
2022/07/03 10:22:54;;;;;;;1.10;1.10;;;22.50;69.10;;;;;;5067041;28;43777;-68
2022/07/03 10:25:22;;;;;;;1.20;1.20;;;22.50;69.10;;;;;;5067193;28;43951;-70
2022/07/03 10:27:50;;;;;;;0.90;0.90;;;22.50;69.10;;;;;;5067247;28;43838;-69
2022/07/03 10:30:19;;;;;;;1.03;1.03;;;22.50;69.20;;;;;;5067461;28;43550;-70
2022/07/03 10:32:49;;;;;;;1.07;1.07;;;22.40;69.80;;;;;;5067031;28;43759;-69
2022/07/03 10:35:19;;;;;;;0.90;0.90;;;22.50;70.20;;;;;;5066970;28;44081;-68
2022/07/03 10:37:58;;;;;;;0.90;0.90;;;22.50;70.10;;;;;;5048669;28;43866;-69
2022/07/03 10:46:14;;;;;;;1.00;1.00;;;22.90;69.00;;;;;;5067081;28;43858;-70
2022/07/03 10:48:58;;;;;;;0.87;0.87;;;23.00;68.30;;;;;;5066948;28;43387;-69
2022/07/03 10:51:27;;;;;;;1.00;1.00;;;23.20;67.90;;;;;;5067234;28;43961;-70
2022/07/03 10:54:19;;;;;;;1.40;1.30;;;23.30;66.80;;;;;;5066833;28;44068;-68
2022/07/03 10:57:07;;;;;;;1.20;1.20;;;23.40;66.10;;;;;;5066612;28;43434;-68
2022/07/03 10:59:57;;;;;;;1.10;1.10;;;23.50;65.30;;;;;;5066698;28;43525;-69
2022/07/03 11:02:27;;;;;;;8.10;1.00;;;23.60;65.00;;;;;;5066911;28;43889;-70
2022/07/03 11:05:07;;;;;;;1.07;1.07;;;23.60;64.90;;;;;;5066492;28;43926;-71
2022/07/03 11:08:11;;;;;;;1.30;1.30;;;23.50;65.20;;;;;;5066582;28;43911;-68
2022/07/03 11:10:41;;;;;;;1.10;1.10;;;23.40;65.60;;;;;;5048331;28;43946;-68
2022/07/03 11:13:15;;;;;;;0.97;0.97;;;23.20;65.80;;;;;;5067162;28;44044;-69
2022/07/03 11:15:45;;;;;;;1.20;1.20;;;23.10;66.10;;;;;;5048064;28;47183;-70
2022/07/03 11:18:18;;;;;;;1.03;1.03;;;23.00;66.30;;;;;;5066388;28;43928;-69
2022/07/03 11:21:20;;;;;;;1.30;1.30;;;22.90;66.70;;;;;;5066692;28;44052;-69
2022/07/03 11:24:04;;;;;;;1.00;1.00;;;22.80;67.20;;;;;;5066681;28;44031;-70
2022/07/03 11:26:33;;;;;;;2.57;1.17;;;22.70;67.10;;;;;;5066295;28;43944;-69
2022/07/03 11:29:01;;;;;;;1.00;1.00;;;22.70;67.30;;;;;;5066120;28;43894;-69
2022/07/03 11:31:29;;;;;;;1.10;1.10;;;22.70;67.40;;;;;;5067416;28;43917;-69
2022/07/03 11:33:58;;;;;;;1.10;1.10;;;22.60;67.40;;;;;;5051952;28;44190;-68
2022/07/03 11:36:27;;;;;;;1.00;1.00;;;22.60;67.60;;;;;;5069815;28;43561;-69
2022/07/03 11:39:05;;;;;;;0.93;0.93;;;22.60;67.60;;;;;;5069808;28;43393;-69
2022/07/03 11:41:45;;;;;;;1.10;1.10;;;22.50;67.70;;;;;;5069619;28;44112;-69
2022/07/03 11:44:20;;;;;;;1.20;1.20;;;22.50;67.60;;;;;;5070358;28;43918;-68
2022/07/03 11:46:50;;;;;;;1.10;1.10;;;22.50;67.70;;;;;;5069726;28;43893;-69
2022/07/03 11:49:19;;;;;;;0.90;0.90;;;22.50;67.70;;;;;;5069389;28;43892;-68
2022/07/03 11:51:56;;;;;;;0.80;0.80;;;22.50;68.00;;;;;;5051079;28;44038;-70
2022/07/03 11:54:24;;;;;;;1.00;1.00;;;22.50;68.80;;;;;;5069990;28;43948;-69
2022/07/03 11:56:53;;;;;;;1.10;1.10;;;22.50;68.90;;;;;;5069347;28;44978;-70
2022/07/03 11:59:22;;;;;;;1.50;0.80;;;22.60;68.50;;;;;;5069425;28;43838;-69
2022/07/03 12:01:51;;;;;;;0.90;0.90;;;22.70;67.80;;;;;;5068739;28;44190;-70
2022/07/03 12:04:20;;;;;;;1.53;1.00;;;22.90;66.30;;;;;;5069669;28;44033;-70
2022/07/03 12:06:49;;;;;;;1.53;0.90;;;23.00;65.20;;;;;;5068978;28;44795;-69
2022/07/03 12:09:20;;;;;;;1.00;1.00;;;23.10;63.90;;;;;;5050724;28;44654;-70
2022/07/03 12:11:57;;;;;;;0.87;0.87;;;23.30;63.40;;;;;;5069279;28;43849;-69
2022/07/03 12:14:38;;;;;;;1.57;1.00;;;23.40;62.90;;;;;;5069766;28;44022;-69
2022/07/03 12:17:07;;;;;;;0.87;0.87;;;23.50;62.40;;;;;;5069364;28;44007;-70
2022/07/03 12:19:37;;;;;;;0.70;0.70;;;23.60;62.30;;;;;;5069155;28;43806;-69
2022/07/03 12:22:05;;;;;;;2.00;1.10;;;23.60;61.90;;;;;;5069190;28;44007;-69
2022/07/03 12:24:34;;;;;;;0.90;0.90;;;23.60;62.30;;;;;;5069333;28;43834;-69
2022/07/03 12:27:07;;;;;;;1.00;0.90;;;23.50;62.90;;;;;;5069308;28;44054;-69
2022/07/03 12:29:35;;;;;;;0.90;0.90;;;23.40;63.70;;;;;;5068936;28;43743;-69
2022/07/03 12:32:08;;;;;;;0.80;0.80;;;23.20;64.00;;;;;;5069040;28;43912;-69
2022/07/03 12:34:37;;;;;;;0.80;0.80;;;23.10;64.40;;;;;;5069701;28;43936;-70
2022/07/03 12:37:05;;;;;;;0.80;0.80;;;23.00;64.90;;;;;;5068735;28;44775;-69
2022/07/03 12:39:43;;;;;;;1.53;0.90;;;22.90;65.40;;;;;;5068223;28;43942;-68
2022/07/03 12:42:22;;;;;;;0.87;0.87;;;22.80;65.60;;;;;;5068200;28;43759;-68
2022/07/03 12:44:57;;;;;;;0.90;0.90;;;22.80;66.00;;;;;;5068503;28;44068;-70
2022/07/03 12:47:25;;;;;;;0.80;0.80;;;22.70;66.20;;;;;;5068809;28;43968;-70
2022/07/03 12:49:58;;;;;;;0.70;0.70;;;22.70;66.30;;;;;;5068456;28;44032;-69
2022/07/03 12:52:26;;;;;;;0.90;0.90;;;22.70;66.60;;;;;;5068740;28;43359;-69
2022/07/03 12:54:54;;;;;;;0.80;0.80;;;22.60;66.60;;;;;;5068788;28;43570;-68
2022/07/03 13:00:11;;;;;;;1.00;1.00;;;22.60;66.80;;;;;;5068607;28;43436;-69
2022/07/03 13:02:39;;;;;;;0.83;0.83;;;22.60;68.00;;;;;;5068413;28;43393;-69
2022/07/03 13:05:17;;;;;;;1.33;0.90;;;22.60;68.00;;;;;;5069059;28;44073;-70
2022/07/03 13:07:46;;;;;;;0.83;0.83;;;22.70;66.20;;;;;;5061799;28;43952;-69
2022/07/03 13:10:14;;;;;;;0.87;0.87;;;22.80;66.40;;;;;;5068347;28;44060;-70
2022/07/03 13:12:50;;;;;;;1.00;1.00;;;22.90;66.40;;;;;;5068367;28;43965;-69
2022/07/03 13:15:19;;;;;;;0.97;0.90;;;23.00;66.20;;;;;;5068628;28;44036;-70
2022/07/03 13:17:56;;;;;;;0.90;0.90;;;23.20;66.10;;;;;;5068043;28;43694;-69